sensor_id;sensor_type;location;lat;lon;timestamp;P1;durP1;ratioP1;P2;durP2;ratioP2
3597;SDS011;1813;52.016;8.714;2022-09-09T00:01:28;4.60;;;1.50;;
3597;SDS011;1813;52.016;8.714;2022-09-09T00:04:12;5.30;;;1.87;;
3597;SDS011;1813;52.016;8.714;2022-09-09T00:06:50;3.07;;;1.50;;
3597;SDS011;1813;52.016;8.714;2022-09-09T00:09:35;6.67;;;1.83;;
3597;SDS011;1813;52.016;8.714;2022-09-09T00:12:11;4.27;;;1.63;;
3597;SDS011;1813;52.016;8.714;2022-09-09T00:14:48;4.00;;;1.70;;
3597;SDS011;1813;52.016;8.714;2022-09-09T00:17:30;6.30;;;1.67;;
3597;SDS011;1813;52.016;8.714;2022-09-09T00:20:11;4.67;;;1.63;;
3597;SDS011;1813;52.016;8.714;2022-09-09T00:22:46;1.93;;;1.60;;
3597;SDS011;1813;52.016;8.714;2022-09-09T00:25:26;2.90;;;1.80;;
3597;SDS011;1813;52.016;8.714;2022-09-09T00:28:08;4.17;;;1.80;;
3597;SDS011;1813;52.016;8.714;2022-09-09T00:30:48;3.20;;;1.63;;
3597;SDS011;1813;52.016;8.714;2022-09-09T00:33:22;3.40;;;1.90;;
3597;SDS011;1813;52.016;8.714;2022-09-09T00:35:57;9.20;;;2.00;;
3597;SDS011;1813;52.016;8.714;2022-09-09T00:38:32;5.70;;;1.80;;
3597;SDS011;1813;52.016;8.714;2022-09-09T00:41:07;6.27;;;2.00;;
3597;SDS011;1813;52.016;8.714;2022-09-09T00:43:43;2.40;;;1.53;;
3597;SDS011;1813;52.016;8.714;2022-09-09T00:46:32;6.47;;;1.80;;
3597;SDS011;1813;52.016;8.714;2022-09-09T00:49:30;9.23;;;2.10;;
3597;SDS011;1813;52.016;8.714;2022-09-09T00:52:16;2.93;;;1.50;;
3597;SDS011;1813;52.016;8.714;2022-09-09T00:55:00;4.37;;;1.70;;
3597;SDS011;1813;52.016;8.714;2022-09-09T00:57:37;8.03;;;2.20;;
3597;SDS011;1813;52.016;8.714;2022-09-09T01:00:19;4.30;;;1.70;;
3597;SDS011;1813;52.016;8.714;2022-09-09T01:02:57;5.60;;;2.20;;
3597;SDS011;1813;52.016;8.714;2022-09-09T01:05:42;6.13;;;2.17;;
3597;SDS011;1813;52.016;8.714;2022-09-09T01:08:28;6.00;;;2.27;;
3597;SDS011;1813;52.016;8.714;2022-09-09T01:11:12;6.13;;;2.40;;
3597;SDS011;1813;52.016;8.714;2022-09-09T01:13:53;6.10;;;2.13;;
3597;SDS011;1813;52.016;8.714;2022-09-09T01:16:37;9.23;;;2.10;;
3597;SDS011;1813;52.016;8.714;2022-09-09T01:19:11;3.80;;;2.30;;
3597;SDS011;1813;52.016;8.714;2022-09-09T01:21:54;3.87;;;1.97;;
3597;SDS011;1813;52.016;8.714;2022-09-09T01:24:38;9.57;;;2.30;;
3597;SDS011;1813;52.016;8.714;2022-09-09T01:27:24;6.83;;;2.03;;
3597;SDS011;1813;52.016;8.714;2022-09-09T01:29:57;9.73;;;2.30;;
3597;SDS011;1813;52.016;8.714;2022-09-09T01:32:37;11.47;;;2.57;;
3597;SDS011;1813;52.016;8.714;2022-09-09T01:35:15;7.23;;;2.30;;
3597;SDS011;1813;52.016;8.714;2022-09-09T01:37:59;8.63;;;2.30;;
3597;SDS011;1813;52.016;8.714;2022-09-09T01:40:32;5.20;;;2.33;;
3597;SDS011;1813;52.016;8.714;2022-09-09T01:43:06;5.77;;;2.47;;
3597;SDS011;1813;52.016;8.714;2022-09-09T01:45:39;4.47;;;2.10;;
3597;SDS011;1813;52.016;8.714;2022-09-09T01:48:14;7.40;;;2.30;;
3597;SDS011;1813;52.016;8.714;2022-09-09T01:51:07;7.33;;;2.20;;
3597;SDS011;1813;52.016;8.714;2022-09-09T01:53:40;6.00;;;2.30;;
3597;SDS011;1813;52.016;8.714;2022-09-09T01:56:19;5.50;;;2.40;;
3597;SDS011;1813;52.016;8.714;2022-09-09T01:59:08;4.83;;;2.23;;
3597;SDS011;1813;52.016;8.714;2022-09-09T02:02:01;6.67;;;2.23;;
3597;SDS011;1813;52.016;8.714;2022-09-09T02:04:45;9.03;;;2.17;;
3597;SDS011;1813;52.016;8.714;2022-09-09T02:07:28;3.80;;;1.93;;
3597;SDS011;1813;52.016;8.714;2022-09-09T02:10:16;4.33;;;1.97;;
3597;SDS011;1813;52.016;8.714;2022-09-09T02:13:03;7.50;;;2.10;;
3597;SDS011;1813;52.016;8.714;2022-09-09T02:15:42;3.50;;;1.90;;
3597;SDS011;1813;52.016;8.714;2022-09-09T02:18:24;4.30;;;2.03;;
3597;SDS011;1813;52.016;8.714;2022-09-09T02:21:02;6.57;;;1.90;;
3597;SDS011;1813;52.016;8.714;2022-09-09T02:23:35;7.23;;;2.13;;
3597;SDS011;1813;52.016;8.714;2022-09-09T02:26:12;3.90;;;1.90;;
3597;SDS011;1813;52.016;8.714;2022-09-09T02:28:52;3.53;;;1.87;;
3597;SDS011;1813;52.016;8.714;2022-09-09T02:31:29;3.27;;;2.00;;
3597;SDS011;1813;52.016;8.714;2022-09-09T02:34:08;2.40;;;1.87;;
3597;SDS011;1813;52.016;8.714;2022-09-09T02:36:42;3.67;;;2.20;;
3597;SDS011;1813;52.016;8.714;2022-09-09T02:39:17;4.03;;;2.30;;
3597;SDS011;1813;52.016;8.714;2022-09-09T02:41:51;8.73;;;2.13;;
3597;SDS011;1813;52.016;8.714;2022-09-09T02:44:31;5.37;;;2.33;;
3597;SDS011;1813;52.016;8.714;2022-09-09T02:47:15;6.53;;;2.70;;
3597;SDS011;1813;52.016;8.714;2022-09-09T02:49:59;2.57;;;2.10;;
3597;SDS011;1813;52.016;8.714;2022-09-09T02:52:38;2.80;;;2.20;;
3597;SDS011;1813;52.016;8.714;2022-09-09T02:55:20;2.93;;;1.93;;
3597;SDS011;1813;52.016;8.714;2022-09-09T02:58:02;5.60;;;2.60;;
3597;SDS011;1813;52.016;8.714;2022-09-09T03:00:38;3.20;;;2.20;;
3597;SDS011;1813;52.016;8.714;2022-09-09T03:03:13;5.93;;;2.30;;
3597;SDS011;1813;52.016;8.714;2022-09-09T03:05:46;4.47;;;2.37;;
3597;SDS011;1813;52.016;8.714;2022-09-09T03:08:19;3.00;;;2.00;;
3597;SDS011;1813;52.016;8.714;2022-09-09T03:10:52;5.27;;;2.20;;
3597;SDS011;1813;52.016;8.714;2022-09-09T03:13:26;12.43;;;2.20;;
3597;SDS011;1813;52.016;8.714;2022-09-09T03:15:58;5.70;;;2.70;;
3597;SDS011;1813;52.016;8.714;2022-09-09T03:18:33;7.20;;;2.57;;
3597;SDS011;1813;52.016;8.714;2022-09-09T03:21:05;6.53;;;2.50;;
3597;SDS011;1813;52.016;8.714;2022-09-09T03:23:37;8.43;;;2.50;;
3597;SDS011;1813;52.016;8.714;2022-09-09T03:26:10;6.67;;;2.70;;
3597;SDS011;1813;52.016;8.714;2022-09-09T03:28:47;9.03;;;2.43;;
3597;SDS011;1813;52.016;8.714;2022-09-09T03:31:24;3.80;;;2.30;;
3597;SDS011;1813;52.016;8.714;2022-09-09T03:33:58;6.73;;;2.37;;
3597;SDS011;1813;52.016;8.714;2022-09-09T03:36:33;6.23;;;2.30;;
3597;SDS011;1813;52.016;8.714;2022-09-09T03:39:05;5.17;;;2.40;;
3597;SDS011;1813;52.016;8.714;2022-09-09T03:41:38;4.30;;;2.10;;
3597;SDS011;1813;52.016;8.714;2022-09-09T03:44:11;9.43;;;2.70;;
3597;SDS011;1813;52.016;8.714;2022-09-09T03:46:45;6.40;;;2.50;;
3597;SDS011;1813;52.016;8.714;2022-09-09T03:49:19;4.90;;;2.20;;
3597;SDS011;1813;52.016;8.714;2022-09-09T03:51:52;3.87;;;2.30;;
3597;SDS011;1813;52.016;8.714;2022-09-09T03:54:24;6.23;;;2.23;;
3597;SDS011;1813;52.016;8.714;2022-09-09T03:56:57;3.57;;;2.10;;
3597;SDS011;1813;52.016;8.714;2022-09-09T03:59:31;4.20;;;2.33;;
3597;SDS011;1813;52.016;8.714;2022-09-09T04:02:03;3.57;;;2.03;;
3597;SDS011;1813;52.016;8.714;2022-09-09T04:04:37;5.03;;;2.40;;
3597;SDS011;1813;52.016;8.714;2022-09-09T04:07:08;7.40;;;2.57;;
3597;SDS011;1813;52.016;8.714;2022-09-09T04:09:43;5.97;;;2.03;;
3597;SDS011;1813;52.016;8.714;2022-09-09T04:12:18;5.80;;;2.20;;
3597;SDS011;1813;52.016;8.714;2022-09-09T04:14:50;11.90;;;2.10;;
3597;SDS011;1813;52.016;8.714;2022-09-09T04:17:22;9.63;;;2.40;;
3597;SDS011;1813;52.016;8.714;2022-09-09T04:19:56;5.80;;;2.10;;
3597;SDS011;1813;52.016;8.714;2022-09-09T04:22:28;5.40;;;2.40;;
3597;SDS011;1813;52.016;8.714;2022-09-09T04:25:00;6.47;;;2.20;;
3597;SDS011;1813;52.016;8.714;2022-09-09T04:27:34;5.73;;;2.20;;
3597;SDS011;1813;52.016;8.714;2022-09-09T04:30:07;5.80;;;2.00;;
3597;SDS011;1813;52.016;8.714;2022-09-09T04:32:41;3.77;;;1.90;;
3597;SDS011;1813;52.016;8.714;2022-09-09T04:35:14;8.90;;;2.37;;
3597;SDS011;1813;52.016;8.714;2022-09-09T04:37:46;3.97;;;2.03;;
3597;SDS011;1813;52.016;8.714;2022-09-09T04:40:19;3.07;;;1.80;;
3597;SDS011;1813;52.016;8.714;2022-09-09T04:42:52;5.53;;;2.20;;
3597;SDS011;1813;52.016;8.714;2022-09-09T04:45:24;3.93;;;2.03;;
3597;SDS011;1813;52.016;8.714;2022-09-09T04:47:57;8.20;;;2.47;;
3597;SDS011;1813;52.016;8.714;2022-09-09T04:50:31;5.53;;;2.20;;
3597;SDS011;1813;52.016;8.714;2022-09-09T04:53:03;4.10;;;2.40;;
3597;SDS011;1813;52.016;8.714;2022-09-09T04:55:36;9.73;;;2.50;;
3597;SDS011;1813;52.016;8.714;2022-09-09T04:58:08;10.90;;;2.70;;
3597;SDS011;1813;52.016;8.714;2022-09-09T05:00:40;10.80;;;2.70;;
3597;SDS011;1813;52.016;8.714;2022-09-09T05:03:13;6.53;;;2.90;;
3597;SDS011;1813;52.016;8.714;2022-09-09T05:05:46;11.33;;;3.20;;
3597;SDS011;1813;52.016;8.714;2022-09-09T05:08:18;10.37;;;3.30;;
3597;SDS011;1813;52.016;8.714;2022-09-09T05:10:52;6.43;;;3.10;;
3597;SDS011;1813;52.016;8.714;2022-09-09T05:13:25;5.97;;;2.93;;
3597;SDS011;1813;52.016;8.714;2022-09-09T05:15:57;10.60;;;3.10;;
3597;SDS011;1813;52.016;8.714;2022-09-09T05:18:31;7.80;;;3.73;;
3597;SDS011;1813;52.016;8.714;2022-09-09T05:21:05;6.00;;;3.43;;
3597;SDS011;1813;52.016;8.714;2022-09-09T05:23:37;8.07;;;3.23;;
3597;SDS011;1813;52.016;8.714;2022-09-09T05:26:11;4.70;;;3.20;;
3597;SDS011;1813;52.016;8.714;2022-09-09T05:28:45;4.60;;;3.20;;
3597;SDS011;1813;52.016;8.714;2022-09-09T05:31:18;6.80;;;3.33;;
3597;SDS011;1813;52.016;8.714;2022-09-09T05:33:53;9.90;;;3.93;;
3597;SDS011;1813;52.016;8.714;2022-09-09T05:36:27;5.53;;;3.50;;
3597;SDS011;1813;52.016;8.714;2022-09-09T05:39:00;9.40;;;3.37;;
3597;SDS011;1813;52.016;8.714;2022-09-09T05:41:35;5.57;;;3.03;;
3597;SDS011;1813;52.016;8.714;2022-09-09T05:44:08;6.77;;;3.20;;
3597;SDS011;1813;52.016;8.714;2022-09-09T05:46:42;5.07;;;2.87;;
3597;SDS011;1813;52.016;8.714;2022-09-09T05:49:16;9.07;;;3.40;;
3597;SDS011;1813;52.016;8.714;2022-09-09T05:51:50;9.03;;;3.00;;
3597;SDS011;1813;52.016;8.714;2022-09-09T05:54:24;8.37;;;3.00;;
3597;SDS011;1813;52.016;8.714;2022-09-09T05:56:59;6.23;;;2.70;;
3597;SDS011;1813;52.016;8.714;2022-09-09T05:59:31;4.80;;;2.87;;
3597;SDS011;1813;52.016;8.714;2022-09-09T06:02:04;8.43;;;2.87;;
3597;SDS011;1813;52.016;8.714;2022-09-09T06:04:40;3.87;;;2.50;;
3597;SDS011;1813;52.016;8.714;2022-09-09T06:07:13;7.57;;;2.37;;
3597;SDS011;1813;52.016;8.714;2022-09-09T06:09:46;5.00;;;2.37;;
3597;SDS011;1813;52.016;8.714;2022-09-09T06:12:18;7.07;;;2.40;;
3597;SDS011;1813;52.016;8.714;2022-09-09T06:14:51;4.80;;;2.30;;
3597;SDS011;1813;52.016;8.714;2022-09-09T06:17:23;10.07;;;2.30;;
3597;SDS011;1813;52.016;8.714;2022-09-09T06:19:56;7.07;;;2.27;;
3597;SDS011;1813;52.016;8.714;2022-09-09T06:22:29;5.20;;;2.30;;
3597;SDS011;1813;52.016;8.714;2022-09-09T06:25:01;4.23;;;2.10;;
3597;SDS011;1813;52.016;8.714;2022-09-09T06:27:33;3.20;;;2.20;;
3597;SDS011;1813;52.016;8.714;2022-09-09T06:30:05;5.60;;;2.10;;
3597;SDS011;1813;52.016;8.714;2022-09-09T06:32:40;9.03;;;2.30;;
3597;SDS011;1813;52.016;8.714;2022-09-09T06:35:13;3.37;;;1.90;;
3597;SDS011;1813;52.016;8.714;2022-09-09T06:37:47;4.83;;;2.10;;
3597;SDS011;1813;52.016;8.714;2022-09-09T06:40:20;3.90;;;2.00;;
3597;SDS011;1813;52.016;8.714;2022-09-09T06:42:53;6.83;;;2.00;;
3597;SDS011;1813;52.016;8.714;2022-09-09T06:45:37;5.20;;;2.30;;
3597;SDS011;1813;52.016;8.714;2022-09-09T06:48:09;8.80;;;2.50;;
3597;SDS011;1813;52.016;8.714;2022-09-09T06:50:41;7.23;;;2.50;;
3597;SDS011;1813;52.016;8.714;2022-09-09T06:53:16;5.60;;;2.30;;
3597;SDS011;1813;52.016;8.714;2022-09-09T06:55:50;4.20;;;2.30;;
3597;SDS011;1813;52.016;8.714;2022-09-09T06:58:22;5.97;;;2.37;;
3597;SDS011;1813;52.016;8.714;2022-09-09T07:01:01;6.03;;;2.33;;
3597;SDS011;1813;52.016;8.714;2022-09-09T07:03:34;4.13;;;2.20;;
3597;SDS011;1813;52.016;8.714;2022-09-09T07:06:06;8.03;;;2.93;;
3597;SDS011;1813;52.016;8.714;2022-09-09T07:08:40;8.30;;;3.13;;
3597;SDS011;1813;52.016;8.714;2022-09-09T07:11:12;7.13;;;2.57;;
3597;SDS011;1813;52.016;8.714;2022-09-09T07:13:46;6.47;;;2.00;;
3597;SDS011;1813;52.016;8.714;2022-09-09T07:16:19;9.07;;;2.70;;
3597;SDS011;1813;52.016;8.714;2022-09-09T07:18:54;7.00;;;2.20;;
3597;SDS011;1813;52.016;8.714;2022-09-09T07:21:28;5.80;;;2.40;;
3597;SDS011;1813;52.016;8.714;2022-09-09T07:24:04;7.57;;;2.83;;
3597;SDS011;1813;52.016;8.714;2022-09-09T07:26:38;4.87;;;2.20;;
3597;SDS011;1813;52.016;8.714;2022-09-09T07:29:11;7.53;;;2.30;;
3597;SDS011;1813;52.016;8.714;2022-09-09T07:31:45;7.07;;;2.63;;
3597;SDS011;1813;52.016;8.714;2022-09-09T07:34:22;9.43;;;2.63;;
3597;SDS011;1813;52.016;8.714;2022-09-09T07:36:55;6.00;;;2.20;;
3597;SDS011;1813;52.016;8.714;2022-09-09T07:39:29;4.23;;;2.07;;
3597;SDS011;1813;52.016;8.714;2022-09-09T07:42:01;5.60;;;2.50;;
3597;SDS011;1813;52.016;8.714;2022-09-09T07:44:35;5.80;;;2.30;;
3597;SDS011;1813;52.016;8.714;2022-09-09T07:47:14;6.47;;;2.40;;
3597;SDS011;1813;52.016;8.714;2022-09-09T07:49:51;6.37;;;2.47;;
3597;SDS011;1813;52.016;8.714;2022-09-09T07:52:29;5.60;;;2.57;;
3597;SDS011;1813;52.016;8.714;2022-09-09T07:55:06;8.17;;;2.63;;
3597;SDS011;1813;52.016;8.714;2022-09-09T07:57:39;4.80;;;2.10;;
3597;SDS011;1813;52.016;8.714;2022-09-09T08:00:13;5.90;;;2.10;;
3597;SDS011;1813;52.016;8.714;2022-09-09T08:02:50;7.43;;;2.00;;
3597;SDS011;1813;52.016;8.714;2022-09-09T08:05:22;7.80;;;2.63;;
3597;SDS011;1813;52.016;8.714;2022-09-09T08:07:54;4.93;;;2.03;;
3597;SDS011;1813;52.016;8.714;2022-09-09T08:10:28;3.80;;;2.00;;
3597;SDS011;1813;52.016;8.714;2022-09-09T08:13:00;8.90;;;2.50;;
3597;SDS011;1813;52.016;8.714;2022-09-09T08:15:32;6.90;;;2.30;;
3597;SDS011;1813;52.016;8.714;2022-09-09T08:18:05;7.37;;;2.40;;
3597;SDS011;1813;52.016;8.714;2022-09-09T08:20:37;7.83;;;2.30;;
3597;SDS011;1813;52.016;8.714;2022-09-09T08:23:10;5.63;;;2.10;;
3597;SDS011;1813;52.016;8.714;2022-09-09T08:25:44;7.10;;;2.40;;
3597;SDS011;1813;52.016;8.714;2022-09-09T08:28:16;11.30;;;2.30;;
3597;SDS011;1813;52.016;8.714;2022-09-09T08:30:49;5.83;;;2.00;;
3597;SDS011;1813;52.016;8.714;2022-09-09T08:33:21;6.20;;;2.20;;
3597;SDS011;1813;52.016;8.714;2022-09-09T08:35:54;7.63;;;2.37;;
3597;SDS011;1813;52.016;8.714;2022-09-09T08:38:27;4.43;;;1.90;;
3597;SDS011;1813;52.016;8.714;2022-09-09T08:41:06;4.90;;;2.10;;
3597;SDS011;1813;52.016;8.714;2022-09-09T08:43:48;5.20;;;2.00;;
3597;SDS011;1813;52.016;8.714;2022-09-09T08:46:24;4.60;;;2.00;;
3597;SDS011;1813;52.016;8.714;2022-09-09T08:49:01;7.40;;;2.30;;
3597;SDS011;1813;52.016;8.714;2022-09-09T08:51:45;4.97;;;2.07;;
3597;SDS011;1813;52.016;8.714;2022-09-09T08:54:20;8.23;;;1.90;;
3597;SDS011;1813;52.016;8.714;2022-09-09T08:56:55;5.60;;;2.10;;
3597;SDS011;1813;52.016;8.714;2022-09-09T08:59:28;4.67;;;1.70;;
3597;SDS011;1813;52.016;8.714;2022-09-09T09:02:02;2.40;;;1.60;;
3597;SDS011;1813;52.016;8.714;2022-09-09T09:04:51;4.20;;;1.97;;
3597;SDS011;1813;52.016;8.714;2022-09-09T09:07:40;4.17;;;1.50;;
3597;SDS011;1813;52.016;8.714;2022-09-09T09:10:34;2.43;;;1.40;;
3597;SDS011;1813;52.016;8.714;2022-09-09T09:13:20;6.23;;;1.57;;
3597;SDS011;1813;52.016;8.714;2022-09-09T09:15:58;4.30;;;1.80;;
3597;SDS011;1813;52.016;8.714;2022-09-09T09:18:34;4.90;;;1.77;;
3597;SDS011;1813;52.016;8.714;2022-09-09T09:21:10;2.13;;;1.50;;
3597;SDS011;1813;52.016;8.714;2022-09-09T09:23:51;4.03;;;1.60;;
3597;SDS011;1813;52.016;8.714;2022-09-09T09:26:28;6.13;;;2.17;;
3597;SDS011;1813;52.016;8.714;2022-09-09T09:29:10;5.50;;;1.70;;
3597;SDS011;1813;52.016;8.714;2022-09-09T09:31:45;2.70;;;1.40;;
3597;SDS011;1813;52.016;8.714;2022-09-09T09:34:22;4.20;;;1.90;;
3597;SDS011;1813;52.016;8.714;2022-09-09T09:36:56;4.53;;;1.87;;
3597;SDS011;1813;52.016;8.714;2022-09-09T09:39:34;5.93;;;1.53;;
3597;SDS011;1813;52.016;8.714;2022-09-09T09:42:09;6.17;;;1.30;;
3597;SDS011;1813;52.016;8.714;2022-09-09T09:44:46;3.67;;;1.33;;
3597;SDS011;1813;52.016;8.714;2022-09-09T09:47:22;8.10;;;1.40;;
3597;SDS011;1813;52.016;8.714;2022-09-09T09:50:04;3.70;;;1.60;;
3597;SDS011;1813;52.016;8.714;2022-09-09T09:52:41;7.97;;;1.77;;
3597;SDS011;1813;52.016;8.714;2022-09-09T09:55:15;3.77;;;1.60;;
3597;SDS011;1813;52.016;8.714;2022-09-09T09:57:50;3.90;;;1.40;;
3597;SDS011;1813;52.016;8.714;2022-09-09T10:00:24;6.07;;;2.00;;
3597;SDS011;1813;52.016;8.714;2022-09-09T10:03:12;4.37;;;1.60;;
3597;SDS011;1813;52.016;8.714;2022-09-09T10:05:55;4.37;;;1.60;;
3597;SDS011;1813;52.016;8.714;2022-09-09T10:08:28;4.33;;;1.77;;
3597;SDS011;1813;52.016;8.714;2022-09-09T10:11:03;3.20;;;1.70;;
3597;SDS011;1813;52.016;8.714;2022-09-09T10:13:48;2.60;;;1.53;;
3597;SDS011;1813;52.016;8.714;2022-09-09T10:16:39;3.97;;;1.60;;
3597;SDS011;1813;52.016;8.714;2022-09-09T10:19:21;4.50;;;1.83;;
3597;SDS011;1813;52.016;8.714;2022-09-09T10:22:14;3.03;;;1.80;;
3597;SDS011;1813;52.016;8.714;2022-09-09T10:28:06;6.47;;;2.03;;
3597;SDS011;1813;52.016;8.714;2022-09-09T10:30:52;3.63;;;1.90;;
3597;SDS011;1813;52.016;8.714;2022-09-09T10:33:37;5.70;;;1.67;;
3597;SDS011;1813;52.016;8.714;2022-09-09T10:36:20;6.80;;;1.70;;
3597;SDS011;1813;52.016;8.714;2022-09-09T10:38:57;4.00;;;1.90;;
3597;SDS011;1813;52.016;8.714;2022-09-09T10:41:37;5.13;;;1.70;;
3597;SDS011;1813;52.016;8.714;2022-09-09T10:44:28;11.23;;;1.83;;
3597;SDS011;1813;52.016;8.714;2022-09-09T10:47:14;6.93;;;1.90;;
3597;SDS011;1813;52.016;8.714;2022-09-09T10:50:04;3.10;;;1.73;;
3597;SDS011;1813;52.016;8.714;2022-09-09T10:52:49;3.87;;;1.67;;
3597;SDS011;1813;52.016;8.714;2022-09-09T10:55:33;5.00;;;1.80;;
3597;SDS011;1813;52.016;8.714;2022-09-09T10:58:12;3.77;;;1.70;;
3597;SDS011;1813;52.016;8.714;2022-09-09T11:00:50;4.30;;;1.70;;
3597;SDS011;1813;52.016;8.714;2022-09-09T11:03:26;4.80;;;1.60;;
3597;SDS011;1813;52.016;8.714;2022-09-09T11:06:04;7.90;;;1.40;;
3597;SDS011;1813;52.016;8.714;2022-09-09T11:08:38;2.80;;;1.50;;
3597;SDS011;1813;52.016;8.714;2022-09-09T11:11:12;8.00;;;1.70;;
3597;SDS011;1813;52.016;8.714;2022-09-09T11:13:49;5.63;;;1.70;;
3597;SDS011;1813;52.016;8.714;2022-09-09T11:16:29;2.83;;;1.40;;
3597;SDS011;1813;52.016;8.714;2022-09-09T11:19:11;3.97;;;1.67;;
3597;SDS011;1813;52.016;8.714;2022-09-09T11:21:50;4.57;;;2.20;;
3597;SDS011;1813;52.016;8.714;2022-09-09T11:24:26;6.43;;;1.80;;
3597;SDS011;1813;52.016;8.714;2022-09-09T11:27:05;2.20;;;1.30;;
3597;SDS011;1813;52.016;8.714;2022-09-09T11:29:56;4.53;;;1.53;;
3597;SDS011;1813;52.016;8.714;2022-09-09T11:32:40;3.83;;;1.50;;
3597;SDS011;1813;52.016;8.714;2022-09-09T11:35:29;4.13;;;1.60;;
3597;SDS011;1813;52.016;8.714;2022-09-09T11:38:14;5.00;;;1.40;;
3597;SDS011;1813;52.016;8.714;2022-09-09T11:40:54;4.93;;;1.70;;
3597;SDS011;1813;52.016;8.714;2022-09-09T11:43:30;5.10;;;1.50;;
3597;SDS011;1813;52.016;8.714;2022-09-09T11:46:05;6.83;;;1.97;;
3597;SDS011;1813;52.016;8.714;2022-09-09T11:48:38;4.17;;;1.53;;
3597;SDS011;1813;52.016;8.714;2022-09-09T11:51:25;4.37;;;1.30;;
3597;SDS011;1813;52.016;8.714;2022-09-09T11:54:02;4.00;;;1.47;;
3597;SDS011;1813;52.016;8.714;2022-09-09T11:56:55;6.43;;;1.63;;
3597;SDS011;1813;52.016;8.714;2022-09-09T11:59:28;5.30;;;1.83;;
3597;SDS011;1813;52.016;8.714;2022-09-09T12:02:02;3.70;;;1.57;;
3597;SDS011;1813;52.016;8.714;2022-09-09T12:04:46;4.30;;;1.53;;
3597;SDS011;1813;52.016;8.714;2022-09-09T12:07:29;3.90;;;1.77;;
3597;SDS011;1813;52.016;8.714;2022-09-09T12:10:22;3.87;;;1.60;;
3597;SDS011;1813;52.016;8.714;2022-09-09T12:13:07;4.20;;;1.90;;
3597;SDS011;1813;52.016;8.714;2022-09-09T12:15:46;7.20;;;1.90;;
3597;SDS011;1813;52.016;8.714;2022-09-09T12:18:21;3.43;;;1.60;;
3597;SDS011;1813;52.016;8.714;2022-09-09T12:20:57;13.83;;;2.17;;
3597;SDS011;1813;52.016;8.714;2022-09-09T12:23:40;5.23;;;1.73;;
3597;SDS011;1813;52.016;8.714;2022-09-09T12:26:28;5.70;;;1.70;;
3597;SDS011;1813;52.016;8.714;2022-09-09T12:29:08;5.20;;;1.83;;
3597;SDS011;1813;52.016;8.714;2022-09-09T12:31:50;4.90;;;1.50;;
3597;SDS011;1813;52.016;8.714;2022-09-09T12:34:31;5.03;;;1.20;;
3597;SDS011;1813;52.016;8.714;2022-09-09T12:37:17;2.40;;;1.37;;
3597;SDS011;1813;52.016;8.714;2022-09-09T12:39:54;2.03;;;1.00;;
3597;SDS011;1813;52.016;8.714;2022-09-09T12:42:29;2.23;;;1.10;;
3597;SDS011;1813;52.016;8.714;2022-09-09T12:45:14;3.40;;;1.27;;
3597;SDS011;1813;52.016;8.714;2022-09-09T12:47:48;3.73;;;1.30;;
3597;SDS011;1813;52.016;8.714;2022-09-09T12:50:25;2.87;;;1.27;;
3597;SDS011;1813;52.016;8.714;2022-09-09T12:53:00;3.20;;;1.40;;
3597;SDS011;1813;52.016;8.714;2022-09-09T12:55:38;3.10;;;1.33;;
3597;SDS011;1813;52.016;8.714;2022-09-09T12:58:12;4.70;;;1.43;;
3597;SDS011;1813;52.016;8.714;2022-09-09T13:00:49;3.93;;;1.50;;
3597;SDS011;1813;52.016;8.714;2022-09-09T13:03:23;2.60;;;1.20;;
3597;SDS011;1813;52.016;8.714;2022-09-09T13:05:57;6.20;;;1.40;;
3597;SDS011;1813;52.016;8.714;2022-09-09T13:08:31;4.20;;;1.60;;
3597;SDS011;1813;52.016;8.714;2022-09-09T13:11:04;4.30;;;1.50;;
3597;SDS011;1813;52.016;8.714;2022-09-09T13:13:42;2.33;;;1.40;;
3597;SDS011;1813;52.016;8.714;2022-09-09T13:16:22;5.30;;;1.40;;
3597;SDS011;1813;52.016;8.714;2022-09-09T13:18:57;6.90;;;1.47;;
3597;SDS011;1813;52.016;8.714;2022-09-09T13:21:32;2.50;;;1.40;;
3597;SDS011;1813;52.016;8.714;2022-09-09T13:24:06;2.97;;;1.40;;
3597;SDS011;1813;52.016;8.714;2022-09-09T13:26:54;1.77;;;1.10;;
3597;SDS011;1813;52.016;8.714;2022-09-09T13:29:29;2.83;;;1.30;;
3597;SDS011;1813;52.016;8.714;2022-09-09T13:32:05;2.47;;;1.30;;
3597;SDS011;1813;52.016;8.714;2022-09-09T13:34:38;4.43;;;1.60;;
3597;SDS011;1813;52.016;8.714;2022-09-09T13:37:16;3.23;;;1.50;;
3597;SDS011;1813;52.016;8.714;2022-09-09T13:39:55;3.33;;;1.40;;
3597;SDS011;1813;52.016;8.714;2022-09-09T13:42:29;5.60;;;1.80;;
3597;SDS011;1813;52.016;8.714;2022-09-09T13:45:14;4.27;;;1.50;;
3597;SDS011;1813;52.016;8.714;2022-09-09T13:47:50;3.40;;;1.37;;
3597;SDS011;1813;52.016;8.714;2022-09-09T13:50:26;2.23;;;1.20;;
3597;SDS011;1813;52.016;8.714;2022-09-09T13:52:59;5.30;;;1.70;;
3597;SDS011;1813;52.016;8.714;2022-09-09T13:55:31;4.90;;;1.63;;
3597;SDS011;1813;52.016;8.714;2022-09-09T13:58:03;2.37;;;1.33;;
3597;SDS011;1813;52.016;8.714;2022-09-09T14:00:37;3.50;;;1.73;;
3597;SDS011;1813;52.016;8.714;2022-09-09T14:03:10;3.07;;;1.60;;
3597;SDS011;1813;52.016;8.714;2022-09-09T14:05:42;4.50;;;1.60;;
3597;SDS011;1813;52.016;8.714;2022-09-09T14:08:20;4.73;;;1.90;;
3597;SDS011;1813;52.016;8.714;2022-09-09T14:10:54;3.57;;;1.40;;
3597;SDS011;1813;52.016;8.714;2022-09-09T14:13:29;3.50;;;1.60;;
3597;SDS011;1813;52.016;8.714;2022-09-09T14:16:03;5.07;;;1.80;;
3597;SDS011;1813;52.016;8.714;2022-09-09T14:18:35;3.80;;;1.47;;
3597;SDS011;1813;52.016;8.714;2022-09-09T14:21:08;5.33;;;1.80;;
3597;SDS011;1813;52.016;8.714;2022-09-09T14:23:40;4.47;;;1.80;;
3597;SDS011;1813;52.016;8.714;2022-09-09T14:26:12;2.50;;;1.40;;
3597;SDS011;1813;52.016;8.714;2022-09-09T14:28:44;2.70;;;1.50;;
3597;SDS011;1813;52.016;8.714;2022-09-09T14:31:18;3.00;;;1.43;;
3597;SDS011;1813;52.016;8.714;2022-09-09T14:33:51;3.53;;;1.37;;
3597;SDS011;1813;52.016;8.714;2022-09-09T14:36:23;3.67;;;1.40;;
3597;SDS011;1813;52.016;8.714;2022-09-09T14:38:56;5.03;;;1.57;;
3597;SDS011;1813;52.016;8.714;2022-09-09T14:41:28;4.20;;;1.50;;
3597;SDS011;1813;52.016;8.714;2022-09-09T14:44:00;4.77;;;1.40;;
3597;SDS011;1813;52.016;8.714;2022-09-09T14:46:34;3.23;;;1.40;;
3597;SDS011;1813;52.016;8.714;2022-09-09T14:49:06;3.17;;;1.50;;
3597;SDS011;1813;52.016;8.714;2022-09-09T14:51:38;4.20;;;1.40;;
3597;SDS011;1813;52.016;8.714;2022-09-09T14:54:10;1.60;;;1.10;;
3597;SDS011;1813;52.016;8.714;2022-09-09T14:56:42;5.60;;;1.33;;
3597;SDS011;1813;52.016;8.714;2022-09-09T14:59:14;3.07;;;1.57;;
3597;SDS011;1813;52.016;8.714;2022-09-09T15:01:47;3.70;;;1.10;;
3597;SDS011;1813;52.016;8.714;2022-09-09T15:04:20;2.80;;;1.30;;
3597;SDS011;1813;52.016;8.714;2022-09-09T15:06:52;1.57;;;1.20;;
3597;SDS011;1813;52.016;8.714;2022-09-09T15:09:24;2.23;;;1.30;;
3597;SDS011;1813;52.016;8.714;2022-09-09T15:11:56;2.50;;;1.27;;
3597;SDS011;1813;52.016;8.714;2022-09-09T15:14:28;2.67;;;1.20;;
3597;SDS011;1813;52.016;8.714;2022-09-09T15:17:02;3.70;;;1.20;;
3597;SDS011;1813;52.016;8.714;2022-09-09T15:19:34;1.63;;;1.10;;
3597;SDS011;1813;52.016;8.714;2022-09-09T15:22:07;3.40;;;1.40;;
3597;SDS011;1813;52.016;8.714;2022-09-09T15:24:40;4.33;;;1.10;;
3597;SDS011;1813;52.016;8.714;2022-09-09T15:27:12;2.50;;;1.30;;
3597;SDS011;1813;52.016;8.714;2022-09-09T15:29:44;6.67;;;1.30;;
3597;SDS011;1813;52.016;8.714;2022-09-09T15:32:18;3.90;;;1.40;;
3597;SDS011;1813;52.016;8.714;2022-09-09T15:34:50;1.93;;;1.00;;
3597;SDS011;1813;52.016;8.714;2022-09-09T15:37:23;2.97;;;1.10;;
3597;SDS011;1813;52.016;8.714;2022-09-09T15:39:55;4.57;;;1.17;;
3597;SDS011;1813;52.016;8.714;2022-09-09T15:42:29;3.37;;;1.40;;
3597;SDS011;1813;52.016;8.714;2022-09-09T15:45:01;2.17;;;1.23;;
3597;SDS011;1813;52.016;8.714;2022-09-09T15:47:34;3.13;;;1.30;;
3597;SDS011;1813;52.016;8.714;2022-09-09T15:50:07;2.80;;;1.20;;
3597;SDS011;1813;52.016;8.714;2022-09-09T15:52:40;3.10;;;1.60;;
3597;SDS011;1813;52.016;8.714;2022-09-09T15:55:12;4.53;;;1.47;;
3597;SDS011;1813;52.016;8.714;2022-09-09T15:57:44;8.97;;;1.57;;
3597;SDS011;1813;52.016;8.714;2022-09-09T16:00:16;4.30;;;1.30;;
3597;SDS011;1813;52.016;8.714;2022-09-09T16:02:49;6.23;;;1.70;;
3597;SDS011;1813;52.016;8.714;2022-09-09T16:05:22;2.43;;;1.20;;
3597;SDS011;1813;52.016;8.714;2022-09-09T16:07:55;7.23;;;1.33;;
3597;SDS011;1813;52.016;8.714;2022-09-09T16:10:27;6.13;;;1.50;;
3597;SDS011;1813;52.016;8.714;2022-09-09T16:12:58;3.20;;;1.23;;
3597;SDS011;1813;52.016;8.714;2022-09-09T16:15:30;5.93;;;1.50;;